sensor_id;sensor_type;location;lat;lon;timestamp;pressure;altitude;pressure_sealevel;temperature;humidity
52693;BME280;68218;51.012;-1.648;2023-05-21T00:02:02;101323.22;;;10.78;67.56
52693;BME280;68218;51.012;-1.648;2023-05-21T00:04:28;101321.47;;;10.72;67.89
52693;BME280;68218;51.012;-1.648;2023-05-21T00:06:56;101317.25;;;10.64;67.51
52693;BME280;68218;51.012;-1.648;2023-05-21T00:09:22;101320.69;;;10.59;68.09
52693;BME280;68218;51.012;-1.648;2023-05-21T00:11:48;101326.78;;;10.55;68.28
52693;BME280;68218;51.012;-1.648;2023-05-21T00:14:13;101313.41;;;10.48;68.52
52693;BME280;68218;51.012;-1.648;2023-05-21T00:16:39;101326.88;;;10.48;68.53
52693;BME280;68218;51.012;-1.648;2023-05-21T00:19:04;101313.50;;;10.41;68.27
52693;BME280;68218;51.012;-1.648;2023-05-21T00:21:30;101305.66;;;10.40;68.54
52693;BME280;68218;51.012;-1.648;2023-05-21T00:23:55;101307.53;;;10.39;68.73
52693;BME280;68218;51.012;-1.648;2023-05-21T00:26:21;101311.44;;;10.32;68.89
52693;BME280;68218;51.012;-1.648;2023-05-21T00:28:48;101317.72;;;10.25;69.09
52693;BME280;68218;51.012;-1.648;2023-05-21T00:31:14;101318.16;;;10.22;69.19
52693;BME280;68218;51.012;-1.648;2023-05-21T00:33:40;101319.69;;;10.18;69.38
52693;BME280;68218;51.012;-1.648;2023-05-21T00:36:06;101317.47;;;10.15;69.04
52693;BME280;68218;51.012;-1.648;2023-05-21T00:38:31;101314.19;;;10.13;69.24
52693;BME280;68218;51.012;-1.648;2023-05-21T00:41:05;101310.06;;;10.10;69.17
52693;BME280;68218;51.012;-1.648;2023-05-21T00:43:31;101300.00;;;10.06;69.34
52693;BME280;68218;51.012;-1.648;2023-05-21T00:45:57;101306.44;;;10.05;69.43
52693;BME280;68218;51.012;-1.648;2023-05-21T00:48:23;101305.16;;;9.96;69.78
52693;BME280;68218;51.012;-1.648;2023-05-21T00:50:49;101306.41;;;9.93;69.72
52693;BME280;68218;51.012;-1.648;2023-05-21T00:53:14;101305.16;;;9.96;69.60
52693;BME280;68218;51.012;-1.648;2023-05-21T00:55:42;101302.06;;;9.92;69.77
52693;BME280;68218;51.012;-1.648;2023-05-21T00:58:08;101300.53;;;9.84;69.99
52693;BME280;68218;51.012;-1.648;2023-05-21T01:00:34;101298.53;;;9.80;70.18
52693;BME280;68218;51.012;-1.648;2023-05-21T01:03:01;101298.41;;;9.74;70.47
52693;BME280;68218;51.012;-1.648;2023-05-21T01:05:28;101293.97;;;9.68;70.77
52693;BME280;68218;51.012;-1.648;2023-05-21T01:07:54;101301.56;;;9.71;70.68
52693;BME280;68218;51.012;-1.648;2023-05-21T01:10:21;101305.31;;;9.70;70.44
52693;BME280;68218;51.012;-1.648;2023-05-21T01:12:47;101306.81;;;9.66;70.69
52693;BME280;68218;51.012;-1.648;2023-05-21T01:15:13;101301.81;;;9.70;70.40
52693;BME280;68218;51.012;-1.648;2023-05-21T01:17:39;101300.03;;;9.64;70.52
52693;BME280;68218;51.012;-1.648;2023-05-21T01:20:06;101299.66;;;9.60;70.82
52693;BME280;68218;51.012;-1.648;2023-05-21T01:22:35;101302.44;;;9.53;71.08
52693;BME280;68218;51.012;-1.648;2023-05-21T01:25:03;101303.50;;;9.52;71.45
52693;BME280;68218;51.012;-1.648;2023-05-21T01:27:29;101306.03;;;9.47;71.84
52693;BME280;68218;51.012;-1.648;2023-05-21T01:29:55;101286.44;;;9.28;71.73
52693;BME280;68218;51.012;-1.648;2023-05-21T01:37:21;101301.53;;;9.29;73.48
52693;BME280;68218;51.012;-1.648;2023-05-21T01:39:56;101305.84;;;9.30;73.63
52693;BME280;68218;51.012;-1.648;2023-05-21T01:42:24;101298.63;;;9.31;73.81
52693;BME280;68218;51.012;-1.648;2023-05-21T01:44:55;101298.94;;;9.23;74.30
52693;BME280;68218;51.012;-1.648;2023-05-21T01:47:22;101299.38;;;9.19;74.86
52693;BME280;68218;51.012;-1.648;2023-05-21T01:49:50;101306.88;;;9.17;75.17
52693;BME280;68218;51.012;-1.648;2023-05-21T01:52:15;101300.06;;;9.15;75.59
52693;BME280;68218;51.012;-1.648;2023-05-21T01:54:41;101292.09;;;9.08;75.74
52693;BME280;68218;51.012;-1.648;2023-05-21T01:57:06;101292.09;;;9.08;75.58
52693;BME280;68218;51.012;-1.648;2023-05-21T01:59:32;101286.09;;;9.06;75.89
52693;BME280;68218;51.012;-1.648;2023-05-21T02:01:57;101294.78;;;9.08;75.91
52693;BME280;68218;51.012;-1.648;2023-05-21T02:04:22;101298.06;;;9.10;75.38
52693;BME280;68218;51.012;-1.648;2023-05-21T02:06:48;101302.59;;;9.10;75.47
52693;BME280;68218;51.012;-1.648;2023-05-21T02:09:13;101297.69;;;9.07;75.57
52693;BME280;68218;51.012;-1.648;2023-05-21T02:11:38;101306.00;;;9.05;75.88
52693;BME280;68218;51.012;-1.648;2023-05-21T02:14:04;101305.63;;;9.02;75.63
52693;BME280;68218;51.012;-1.648;2023-05-21T02:16:29;101303.16;;;9.00;75.82
52693;BME280;68218;51.012;-1.648;2023-05-21T02:18:55;101296.94;;;8.99;75.62
52693;BME280;68218;51.012;-1.648;2023-05-21T02:21:22;101300.47;;;9.00;75.65
52693;BME280;68218;51.012;-1.648;2023-05-21T02:23:47;101290.38;;;8.95;75.77
52693;BME280;68218;51.012;-1.648;2023-05-21T02:26:12;101300.47;;;9.00;75.70
52693;BME280;68218;51.012;-1.648;2023-05-21T02:28:38;101295.75;;;8.95;75.83
52693;BME280;68218;51.012;-1.648;2023-05-21T02:31:04;101285.88;;;8.89;76.22
52693;BME280;68218;51.012;-1.648;2023-05-21T02:33:29;101280.91;;;8.93;76.27
52693;BME280;68218;51.012;-1.648;2023-05-21T02:35:55;101283.19;;;8.89;76.54
52693;BME280;68218;51.012;-1.648;2023-05-21T02:38:20;101270.44;;;8.85;76.77
52693;BME280;68218;51.012;-1.648;2023-05-21T02:40:48;101267.97;;;8.83;77.01
52693;BME280;68218;51.012;-1.648;2023-05-21T02:43:14;101277.50;;;8.79;77.26
52693;BME280;68218;51.012;-1.648;2023-05-21T02:45:39;101271.19;;;8.73;77.84
52693;BME280;68218;51.012;-1.648;2023-05-21T02:48:05;101265.66;;;8.68;78.19
52693;BME280;68218;51.012;-1.648;2023-05-21T02:50:30;101265.06;;;8.66;78.43
52693;BME280;68218;51.012;-1.648;2023-05-21T02:52:55;101267.16;;;8.64;78.80
52693;BME280;68218;51.012;-1.648;2023-05-21T02:55:21;101264.91;;;8.61;79.17
52693;BME280;68218;51.012;-1.648;2023-05-21T02:57:47;101266.78;;;8.60;79.16
52693;BME280;68218;51.012;-1.648;2023-05-21T03:00:12;101277.16;;;8.57;79.60
52693;BME280;68218;51.012;-1.648;2023-05-21T03:02:38;101278.63;;;8.53;79.78
52693;BME280;68218;51.012;-1.648;2023-05-21T03:05:03;101278.47;;;8.48;80.37
52693;BME280;68218;51.012;-1.648;2023-05-21T03:07:29;101277.88;;;8.46;80.45
52693;BME280;68218;51.012;-1.648;2023-05-21T03:09:54;101272.28;;;8.47;80.47
52693;BME280;68218;51.012;-1.648;2023-05-21T03:12:20;101276.22;;;8.44;80.63
52693;BME280;68218;51.012;-1.648;2023-05-21T03:14:45;101263.44;;;8.40;80.79
52693;BME280;68218;51.012;-1.648;2023-05-21T03:17:10;101261.41;;;8.35;80.92
52693;BME280;68218;51.012;-1.648;2023-05-21T03:19:39;101247.00;;;8.30;81.20
52693;BME280;68218;51.012;-1.648;2023-05-21T03:22:05;101251.53;;;8.29;81.24
52693;BME280;68218;51.012;-1.648;2023-05-21T03:24:30;101255.66;;;8.32;81.10
52693;BME280;68218;51.012;-1.648;2023-05-21T03:26:57;101249.06;;;8.28;81.09
52693;BME280;68218;51.012;-1.648;2023-05-21T03:29:23;101252.97;;;8.32;80.65
52693;BME280;68218;51.012;-1.648;2023-05-21T03:31:48;101253.94;;;8.37;80.30
52693;BME280;68218;51.012;-1.648;2023-05-21T03:34:15;101258.13;;;8.33;80.22
52693;BME280;68218;51.012;-1.648;2023-05-21T03:36:41;101260.22;;;8.31;80.20
52693;BME280;68218;51.012;-1.648;2023-05-21T03:39:06;101260.72;;;8.21;80.82
52693;BME280;68218;51.012;-1.648;2023-05-21T03:41:32;101254.53;;;8.21;80.71
52693;BME280;68218;51.012;-1.648;2023-05-21T03:43:57;101255.13;;;8.23;80.30
52693;BME280;68218;51.012;-1.648;2023-05-21T03:46:22;101262.59;;;8.21;80.34
52693;BME280;68218;51.012;-1.648;2023-05-21T03:48:48;101262.13;;;8.24;80.00
52693;BME280;68218;51.012;-1.648;2023-05-21T03:51:13;101259.44;;;8.24;80.07
52693;BME280;68218;51.012;-1.648;2023-05-21T03:53:40;101248.31;;;8.20;80.16
52693;BME280;68218;51.012;-1.648;2023-05-21T03:56:05;101250.63;;;8.17;80.26
52693;BME280;68218;51.012;-1.648;2023-05-21T03:58:30;101258.53;;;8.12;80.40
52693;BME280;68218;51.012;-1.648;2023-05-21T04:00:56;101259.97;;;8.14;80.27
52693;BME280;68218;51.012;-1.648;2023-05-21T04:03:22;101263.53;;;8.08;80.57
52693;BME280;68218;51.012;-1.648;2023-05-21T04:05:47;101273.84;;;8.11;80.52
52693;BME280;68218;51.012;-1.648;2023-05-21T04:08:13;101276.59;;;8.04;80.93
52693;BME280;68218;51.012;-1.648;2023-05-21T04:10:39;101279.66;;;8.08;80.96
52693;BME280;68218;51.012;-1.648;2023-05-21T04:13:04;101272.09;;;7.98;81.01
52693;BME280;68218;51.012;-1.648;2023-05-21T04:15:30;101275.56;;;8.05;80.88
52693;BME280;68218;51.012;-1.648;2023-05-21T04:17:56;101273.31;;;8.02;80.79
52693;BME280;68218;51.012;-1.648;2023-05-21T04:20:22;101281.16;;;8.04;81.14
52693;BME280;68218;51.012;-1.648;2023-05-21T04:22:47;101285.69;;;8.03;81.19
52693;BME280;68218;51.012;-1.648;2023-05-21T04:25:13;101278.94;;;7.94;81.72
52693;BME280;68218;51.012;-1.648;2023-05-21T04:27:38;101279.97;;;7.93;81.80
52693;BME280;68218;51.012;-1.648;2023-05-21T04:30:04;101282.00;;;7.98;81.91
52693;BME280;68218;51.012;-1.648;2023-05-21T04:32:30;101282.81;;;7.98;81.97
52693;BME280;68218;51.012;-1.648;2023-05-21T04:34:57;101284.88;;;8.03;81.84
52693;BME280;68218;51.012;-1.648;2023-05-21T04:37:25;101288.38;;;8.03;81.66
52693;BME280;68218;51.012;-1.648;2023-05-21T04:39:53;101285.69;;;8.03;81.71
52693;BME280;68218;51.012;-1.648;2023-05-21T04:42:18;101284.88;;;8.03;81.74
52693;BME280;68218;51.012;-1.648;2023-05-21T04:44:44;101286.31;;;8.05;81.68
52693;BME280;68218;51.012;-1.648;2023-05-21T04:47:09;101284.06;;;8.02;81.92
52693;BME280;68218;51.012;-1.648;2023-05-21T04:49:36;101277.03;;;8.01;81.94
52693;BME280;68218;51.012;-1.648;2023-05-21T04:52:01;101278.25;;;8.05;81.86
52693;BME280;68218;51.012;-1.648;2023-05-21T04:54:27;101272.09;;;7.98;81.82
52693;BME280;68218;51.012;-1.648;2023-05-21T04:56:53;101275.56;;;8.05;82.02
52693;BME280;68218;51.012;-1.648;2023-05-21T04:59:18;101282.34;;;8.08;81.78
52693;BME280;68218;51.012;-1.648;2023-05-21T05:01:44;101276.16;;;8.07;81.84
52693;BME280;68218;51.012;-1.648;2023-05-21T05:04:09;101268.09;;;8.07;81.64
52693;BME280;68218;51.012;-1.648;2023-05-21T05:06:35;101279.59;;;8.15;81.72
52693;BME280;68218;51.012;-1.648;2023-05-21T05:09:00;101280.63;;;8.14;81.83
52693;BME280;68218;51.012;-1.648;2023-05-21T05:11:25;101289.91;;;8.18;81.60
52693;BME280;68218;51.012;-1.648;2023-05-21T05:13:51;101284.47;;;8.24;81.44
52693;BME280;68218;51.012;-1.648;2023-05-21T05:16:16;101279.75;;;8.20;81.46
52693;BME280;68218;51.012;-1.648;2023-05-21T05:18:51;101278.03;;;8.25;81.20
52693;BME280;68218;51.012;-1.648;2023-05-21T05:21:17;101269.31;;;8.30;81.33
52693;BME280;68218;51.012;-1.648;2023-05-21T05:23:42;101268.66;;;8.35;81.23
52693;BME280;68218;51.012;-1.648;2023-05-21T05:26:09;101272.75;;;8.37;81.31
52693;BME280;68218;51.012;-1.648;2023-05-21T05:28:35;101268.19;;;8.38;81.46
52693;BME280;68218;51.012;-1.648;2023-05-21T05:31:00;101267.16;;;8.39;81.32
52693;BME280;68218;51.012;-1.648;2023-05-21T05:33:26;101253.72;;;8.39;81.28
52693;BME280;68218;51.012;-1.648;2023-05-21T05:35:51;101271.69;;;8.45;80.97
52693;BME280;68218;51.012;-1.648;2023-05-21T05:38:16;101269.75;;;8.52;81.37
52693;BME280;68218;51.012;-1.648;2023-05-21T05:40:42;101273.84;;;8.55;81.40
52693;BME280;68218;51.012;-1.648;2023-05-21T05:43:07;101274.47;;;8.57;81.22
52693;BME280;68218;51.012;-1.648;2023-05-21T05:45:33;101268.56;;;8.67;81.07
52693;BME280;68218;51.012;-1.648;2023-05-21T05:47:58;101267.31;;;8.69;81.10
52693;BME280;68218;51.012;-1.648;2023-05-21T05:50:23;101277.63;;;8.72;80.90
52693;BME280;68218;51.012;-1.648;2023-05-21T05:52:49;101260.34;;;8.80;81.03
52693;BME280;68218;51.012;-1.648;2023-05-21T05:55:15;101268.09;;;8.88;80.54
52693;BME280;68218;51.012;-1.648;2023-05-21T05:57:40;101259.44;;;8.86;80.55
52693;BME280;68218;51.012;-1.648;2023-05-21T06:00:06;101262.44;;;8.96;80.20
52693;BME280;68218;51.012;-1.648;2023-05-21T06:02:34;101261.06;;;9.06;80.35
52693;BME280;68218;51.012;-1.648;2023-05-21T06:05:00;101265.31;;;9.13;80.06
52693;BME280;68218;51.012;-1.648;2023-05-21T06:07:25;101261.59;;;9.26;79.47
52693;BME280;68218;51.012;-1.648;2023-05-21T06:09:50;101274.03;;;9.27;79.70
52693;BME280;68218;51.012;-1.648;2023-05-21T06:12:16;101266.31;;;9.31;79.66
52693;BME280;68218;51.012;-1.648;2023-05-21T06:14:41;101275.94;;;9.38;79.29
52693;BME280;68218;51.012;-1.648;2023-05-21T06:17:07;101274.47;;;9.54;78.85
52693;BME280;68218;51.012;-1.648;2023-05-21T06:19:32;101268.13;;;9.49;79.15
52693;BME280;68218;51.012;-1.648;2023-05-21T06:21:58;101263.84;;;9.60;78.78
52693;BME280;68218;51.012;-1.648;2023-05-21T06:24:24;101265.84;;;9.76;78.73
52693;BME280;68218;51.012;-1.648;2023-05-21T06:26:50;101273.38;;;9.86;78.65
52693;BME280;68218;51.012;-1.648;2023-05-21T06:29:15;101262.03;;;9.96;78.39
52693;BME280;68218;51.012;-1.648;2023-05-21T06:31:41;101254.06;;;10.01;78.25
52693;BME280;68218;51.012;-1.648;2023-05-21T06:34:07;101256.38;;;10.09;78.36
52693;BME280;68218;51.012;-1.648;2023-05-21T06:36:32;101259.81;;;10.16;77.75
52693;BME280;68218;51.012;-1.648;2023-05-21T06:38:59;101263.31;;;10.17;77.38
52693;BME280;68218;51.012;-1.648;2023-05-21T06:41:25;101251.59;;;10.23;77.52
52693;BME280;68218;51.012;-1.648;2023-05-21T06:43:50;101256.28;;;10.51;77.66
52693;BME280;68218;51.012;-1.648;2023-05-21T06:46:16;101264.38;;;10.51;76.79
52693;BME280;68218;51.012;-1.648;2023-05-21T06:48:42;101262.47;;;10.63;76.56
52693;BME280;68218;51.012;-1.648;2023-05-21T06:51:08;101251.47;;;10.65;75.85
52693;BME280;68218;51.012;-1.648;2023-05-21T06:53:33;101258.13;;;10.74;76.07
52693;BME280;68218;51.012;-1.648;2023-05-21T06:55:59;101251.03;;;10.97;75.05
52693;BME280;68218;51.012;-1.648;2023-05-21T06:58:24;101263.41;;;11.10;74.81
52693;BME280;68218;51.012;-1.648;2023-05-21T07:00:55;101260.63;;;11.04;74.81
52693;BME280;68218;51.012;-1.648;2023-05-21T07:03:21;101261.63;;;11.44;73.70
52693;BME280;68218;51.012;-1.648;2023-05-21T07:05:46;101261.72;;;11.66;72.67
52693;BME280;68218;51.012;-1.648;2023-05-21T07:08:12;101243.81;;;11.94;71.46
52693;BME280;68218;51.012;-1.648;2023-05-21T07:10:37;101248.75;;;11.97;71.96
52693;BME280;68218;51.012;-1.648;2023-05-21T07:13:02;101244.22;;;12.03;71.60
52693;BME280;68218;51.012;-1.648;2023-05-21T07:15:28;101247.41;;;12.16;70.35
52693;BME280;68218;51.012;-1.648;2023-05-21T07:17:53;101246.97;;;12.64;69.64
52693;BME280;68218;51.012;-1.648;2023-05-21T07:20:19;101240.50;;;12.65;68.86
52693;BME280;68218;51.012;-1.648;2023-05-21T07:22:44;101247.09;;;12.52;69.48
52693;BME280;68218;51.012;-1.648;2023-05-21T07:25:10;101246.41;;;12.84;68.93
52693;BME280;68218;51.012;-1.648;2023-05-21T07:27:35;101243.00;;;12.93;67.90
52693;BME280;68218;51.012;-1.648;2023-05-21T07:30:01;101242.69;;;12.90;68.06
52693;BME280;68218;51.012;-1.648;2023-05-21T07:32:26;101252.47;;;13.40;67.24
52693;BME280;68218;51.012;-1.648;2023-05-21T07:34:53;101242.13;;;13.37;67.08
52693;BME280;68218;51.012;-1.648;2023-05-21T07:37:19;101258.00;;;13.28;65.56
52693;BME280;68218;51.012;-1.648;2023-05-21T07:39:45;101254.22;;;13.29;66.47
52693;BME280;68218;51.012;-1.648;2023-05-21T07:42:10;101237.06;;;13.46;66.18
52693;BME280;68218;51.012;-1.648;2023-05-21T07:44:36;101247.88;;;14.11;64.42
52693;BME280;68218;51.012;-1.648;2023-05-21T07:47:01;101248.44;;;13.75;64.87
52693;BME280;68218;51.012;-1.648;2023-05-21T07:49:27;101242.53;;;14.21;62.67
52693;BME280;68218;51.012;-1.648;2023-05-21T07:51:52;101258.34;;;14.87;62.34
52693;BME280;68218;51.012;-1.648;2023-05-21T07:54:18;101251.72;;;14.63;61.20
52693;BME280;68218;51.012;-1.648;2023-05-21T07:56:43;101249.19;;;14.51;61.51
52693;BME280;68218;51.012;-1.648;2023-05-21T07:59:09;101257.41;;;14.61;62.44
52693;BME280;68218;51.012;-1.648;2023-05-21T08:01:34;101254.94;;;15.33;61.06
52693;BME280;68218;51.012;-1.648;2023-05-21T08:04:01;101265.69;;;14.92;59.99
52693;BME280;68218;51.012;-1.648;2023-05-21T08:06:31;101249.88;;;14.73;59.84
52693;BME280;68218;51.012;-1.648;2023-05-21T08:08:59;101253.78;;;15.03;60.34
52693;BME280;68218;51.012;-1.648;2023-05-21T08:11:26;101253.06;;;15.64;58.28
52693;BME280;68218;51.012;-1.648;2023-05-21T08:13:51;101248.72;;;16.09;57.83
52693;BME280;68218;51.012;-1.648;2023-05-21T08:16:17;101254.97;;;16.15;56.60
52693;BME280;68218;51.012;-1.648;2023-05-21T08:18:42;101260.13;;;16.17;58.93
52693;BME280;68218;51.012;-1.648;2023-05-21T08:21:08;101249.56;;;15.84;57.49
52693;BME280;68218;51.012;-1.648;2023-05-21T08:23:33;101249.41;;;16.56;56.41
52693;BME280;68218;51.012;-1.648;2023-05-21T08:25:59;101256.59;;;16.21;57.21
52693;BME280;68218;51.012;-1.648;2023-05-21T08:28:24;101257.94;;;16.24;55.91
52693;BME280;68218;51.012;-1.648;2023-05-21T08:30:51;101251.06;;;16.52;55.37
52693;BME280;68218;51.012;-1.648;2023-05-21T08:33:17;101254.97;;;16.15;55.40
52693;BME280;68218;51.012;-1.648;2023-05-21T08:35:42;101255.72;;;16.41;54.18
52693;BME280;68218;51.012;-1.648;2023-05-21T08:38:08;101260.31;;;16.51;53.97
52693;BME280;68218;51.012;-1.648;2023-05-21T08:40:33;101261.19;;;16.26;55.39
52693;BME280;68218;51.012;-1.648;2023-05-21T08:43:00;101253.88;;;17.02;55.44
52693;BME280;68218;51.012;-1.648;2023-05-21T08:45:26;101247.44;;;17.27;52.90
52693;BME280;68218;51.012;-1.648;2023-05-21T08:47:55;101253.38;;;17.39;53.87
52693;BME280;68218;51.012;-1.648;2023-05-21T08:50:26;101266.03;;;17.59;51.87
52693;BME280;68218;51.012;-1.648;2023-05-21T08:52:52;101266.13;;;17.04;52.41
52693;BME280;68218;51.012;-1.648;2023-05-21T08:55:19;101263.03;;;17.61;53.08
52693;BME280;68218;51.012;-1.648;2023-05-21T08:57:46;101256.81;;;17.55;51.99
52693;BME280;68218;51.012;-1.648;2023-05-21T09:00:12;101257.81;;;17.99;52.34
52693;BME280;68218;51.012;-1.648;2023-05-21T09:02:38;101258.47;;;18.20;51.72
52693;BME280;68218;51.012;-1.648;2023-05-21T09:05:08;101255.88;;;17.70;51.63
52693;BME280;68218;51.012;-1.648;2023-05-21T09:07:58;101255.97;;;18.24;50.43
52693;BME280;68218;51.012;-1.648;2023-05-21T09:10:35;101257.69;;;18.14;51.35
52693;BME280;68218;51.012;-1.648;2023-05-21T09:13:02;101260.97;;;17.87;50.78
52693;BME280;68218;51.012;-1.648;2023-05-21T09:15:28;101253.59;;;17.83;50.14
52693;BME280;68218;51.012;-1.648;2023-05-21T09:17:53;101244.97;;;18.77;49.62
52693;BME280;68218;51.012;-1.648;2023-05-21T09:20:24;101256.03;;;18.19;49.30
52693;BME280;68218;51.012;-1.648;2023-05-21T09:22:51;101250.59;;;17.50;50.74
52693;BME280;68218;51.012;-1.648;2023-05-21T09:25:22;101262.91;;;16.92;51.75
52693;BME280;68218;51.012;-1.648;2023-05-21T09:27:48;101253.59;;;17.03;52.31
52693;BME280;68218;51.012;-1.648;2023-05-21T09:30:14;101257.44;;;16.97;51.27
52693;BME280;68218;51.012;-1.648;2023-05-21T09:32:42;101242.94;;;17.86;49.52
52693;BME280;68218;51.012;-1.648;2023-05-21T09:40:23;101238.56;;;18.14;48.73
52693;BME280;68218;51.012;-1.648;2023-05-21T09:42:51;101232.50;;;17.93;49.40
52693;BME280;68218;51.012;-1.648;2023-05-21T09:45:20;101236.50;;;18.30;49.12
52693;BME280;68218;51.012;-1.648;2023-05-21T09:47:47;101230.47;;;18.33;48.28
52693;BME280;68218;51.012;-1.648;2023-05-21T09:50:23;101225.31;;;18.75;49.85
52693;BME280;68218;51.012;-1.648;2023-05-21T09:52:50;101225.97;;;18.67;50.39
52693;BME280;68218;51.012;-1.648;2023-05-21T09:55:17;101230.72;;;18.80;48.20
52693;BME280;68218;51.012;-1.648;2023-05-21T09:57:46;101229.16;;;18.74;48.17
52693;BME280;68218;51.012;-1.648;2023-05-21T10:00:22;101227.06;;;18.42;49.47
52693;BME280;68218;51.012;-1.648;2023-05-21T10:02:52;101232.69;;;18.02;49.73
52693;BME280;68218;51.012;-1.648;2023-05-21T10:05:18;101227.91;;;18.18;50.41
52693;BME280;68218;51.012;-1.648;2023-05-21T10:07:49;101229.00;;;18.17;50.53
52693;BME280;68218;51.012;-1.648;2023-05-21T10:10:19;101226.06;;;17.79;50.11
52693;BME280;68218;51.012;-1.648;2023-05-21T10:12:50;101222.56;;;17.73;49.20
52693;BME280;68218;51.012;-1.648;2023-05-21T10:15:21;101225.06;;;18.96;48.33
52693;BME280;68218;51.012;-1.648;2023-05-21T10:17:48;101212.13;;;18.82;48.54
52693;BME280;68218;51.012;-1.648;2023-05-21T10:20:15;101216.41;;;19.78;47.75
52693;BME280;68218;51.012;-1.648;2023-05-21T10:22:40;101219.97;;;18.89;46.89
52693;BME280;68218;51.012;-1.648;2023-05-21T10:25:07;101217.66;;;18.05;49.93
52693;BME280;68218;51.012;-1.648;2023-05-21T10:27:34;101211.66;;;18.75;48.33
52693;BME280;68218;51.012;-1.648;2023-05-21T10:30:00;101204.56;;;19.50;47.76
52693;BME280;68218;51.012;-1.648;2023-05-21T10:32:26;101208.44;;;19.30;45.97
52693;BME280;68218;51.012;-1.648;2023-05-21T10:34:55;101199.09;;;19.50;46.09
52693;BME280;68218;51.012;-1.648;2023-05-21T10:37:25;101200.59;;;19.23;46.42
52693;BME280;68218;51.012;-1.648;2023-05-21T10:39:52;101198.81;;;19.33;45.56
52693;BME280;68218;51.012;-1.648;2023-05-21T10:56:04;101189.59;;;19.28;45.95
52693;BME280;68218;51.012;-1.648;2023-05-21T11:01:09;101175.34;;;18.50;47.75
52693;BME280;68218;51.012;-1.648;2023-05-21T11:03:35;101184.16;;;19.42;45.96
52693;BME280;68218;51.012;-1.648;2023-05-21T11:06:01;101175.47;;;20.56;43.04
52693;BME280;68218;51.012;-1.648;2023-05-21T11:08:29;101174.88;;;20.73;43.04
52693;BME280;68218;51.012;-1.648;2023-05-21T11:11:01;101160.78;;;20.25;42.56
52693;BME280;68218;51.012;-1.648;2023-05-21T11:13:28;101166.66;;;20.73;42.22
52693;BME280;68218;51.012;-1.648;2023-05-21T11:23:59;101153.84;;;20.69;40.79
52693;BME280;68218;51.012;-1.648;2023-05-21T11:26:28;101169.28;;;20.79;40.31
52693;BME280;68218;51.012;-1.648;2023-05-21T11:31:29;101166.31;;;20.89;41.29
52693;BME280;68218;51.012;-1.648;2023-05-21T11:34:37;101165.13;;;21.26;38.71
52693;BME280;68218;51.012;-1.648;2023-05-21T11:39:54;101160.94;;;21.29;40.67
52693;BME280;68218;51.012;-1.648;2023-05-21T11:42:33;101160.13;;;20.69;41.63
52693;BME280;68218;51.012;-1.648;2023-05-21T11:45:01;101159.03;;;18.88;44.95
52693;BME280;68218;51.012;-1.648;2023-05-21T11:47:28;101172.03;;;18.53;46.77
52693;BME280;68218;51.012;-1.648;2023-05-21T11:49:54;101156.84;;;18.66;47.18
52693;BME280;68218;51.012;-1.648;2023-05-21T11:52:21;101158.31;;;18.15;48.49
52693;BME280;68218;51.012;-1.648;2023-05-21T11:54:50;101148.78;;;19.79;45.43
52693;BME280;68218;51.012;-1.648;2023-05-21T11:57:18;101153.16;;;20.35;43.17
52693;BME280;68218;51.012;-1.648;2023-05-21T11:59:44;101144.34;;;19.97;43.99
52693;BME280;68218;51.012;-1.648;2023-05-21T12:02:14;101154.28;;;18.94;45.43
52693;BME280;68218;51.012;-1.648;2023-05-21T12:04:41;101162.06;;;18.87;44.22
52693;BME280;68218;51.012;-1.648;2023-05-21T12:07:08;101153.91;;;19.67;44.81
52693;BME280;68218;51.012;-1.648;2023-05-21T12:09:47;101144.56;;;20.14;42.42
52693;BME280;68218;51.012;-1.648;2023-05-21T12:12:18;101133.59;;;20.14;41.13
52693;BME280;68218;51.012;-1.648;2023-05-21T12:14:45;101137.53;;;20.64;41.35
52693;BME280;68218;51.012;-1.648;2023-05-21T12:17:14;101144.34;;;19.97;41.29
52693;BME280;68218;51.012;-1.648;2023-05-21T12:19:41;101140.63;;;21.53;40.35
52693;BME280;68218;51.012;-1.648;2023-05-21T12:22:07;101145.56;;;20.32;40.70
52693;BME280;68218;51.012;-1.648;2023-05-21T12:24:34;101143.13;;;20.45;41.12
52693;BME280;68218;51.012;-1.648;2023-05-21T12:27:00;101135.25;;;21.02;40.11
52693;BME280;68218;51.012;-1.648;2023-05-21T12:29:31;101128.19;;;20.37;41.44
52693;BME280;68218;51.012;-1.648;2023-05-21T12:32:01;101130.78;;;19.45;42.55
52693;BME280;68218;51.012;-1.648;2023-05-21T12:34:42;101126.72;;;20.17;41.42
52693;BME280;68218;51.012;-1.648;2023-05-21T12:37:22;101125.56;;;20.18;41.27
52693;BME280;68218;51.012;-1.648;2023-05-21T12:39:49;101124.97;;;21.08;39.11
52693;BME280;68218;51.012;-1.648;2023-05-21T12:42:15;101106.78;;;21.43;39.80
52693;BME280;68218;51.012;-1.648;2023-05-21T12:44:46;101115.63;;;21.40;40.80
52693;BME280;68218;51.012;-1.648;2023-05-21T12:47:12;101119.38;;;20.26;40.59
52693;BME280;68218;51.012;-1.648;2023-05-21T12:49:41;101118.59;;;19.98;42.08
52693;BME280;68218;51.012;-1.648;2023-05-21T12:52:12;101111.28;;;21.62;40.59
52693;BME280;68218;51.012;-1.648;2023-05-21T12:54:40;101122.94;;;20.27;41.54
52693;BME280;68218;51.012;-1.648;2023-05-21T12:57:19;101126.41;;;19.44;43.99
52693;BME280;68218;51.012;-1.648;2023-05-21T12:59:51;101129.03;;;20.37;42.79
52693;BME280;68218;51.012;-1.648;2023-05-21T13:02:19;101125.41;;;20.65;40.25
52693;BME280;68218;51.012;-1.648;2023-05-21T13:04:45;101107.50;;;21.49;39.08
52693;BME280;68218;51.012;-1.648;2023-05-21T13:07:12;101112.41;;;19.78;41.68
52693;BME280;68218;51.012;-1.648;2023-05-21T13:09:37;101127.72;;;20.21;40.56
52693;BME280;68218;51.012;-1.648;2023-05-21T13:12:03;101114.88;;;20.58;39.93
52693;BME280;68218;51.012;-1.648;2023-05-21T13:14:28;101123.78;;;20.77;41.28
52693;BME280;68218;51.012;-1.648;2023-05-21T13:16:53;101119.59;;;21.48;40.53
52693;BME280;68218;51.012;-1.648;2023-05-21T13:19:19;101122.47;;;21.74;40.74
52693;BME280;68218;51.012;-1.648;2023-05-21T13:21:44;101134.47;;;20.65;41.87
52693;BME280;68218;51.012;-1.648;2023-05-21T13:24:10;101150.91;;;19.35;43.17